sensor_id;sensor_type;location;lat;lon;timestamp;temperature;humidity
39665;DHT22;26679;50.872;4.332;2023-04-28T00:01:31;12.20;98.80
39665;DHT22;26679;50.872;4.332;2023-04-28T00:03:56;12.20;99.20
39665;DHT22;26679;50.872;4.332;2023-04-28T00:06:22;12.20;99.20
39665;DHT22;26679;50.872;4.332;2023-04-28T00:08:48;12.30;99.20
39665;DHT22;26679;50.872;4.332;2023-04-28T00:11:13;12.20;99.40
39665;DHT22;26679;50.872;4.332;2023-04-28T00:13:39;12.20;99.60
39665;DHT22;26679;50.872;4.332;2023-04-28T00:16:05;12.20;99.90
39665;DHT22;26679;50.872;4.332;2023-04-28T00:18:30;12.10;99.90
39665;DHT22;26679;50.872;4.332;2023-04-28T00:20:57;12.10;99.90
39665;DHT22;26679;50.872;4.332;2023-04-28T00:23:23;12.00;99.90
39665;DHT22;26679;50.872;4.332;2023-04-28T00:25:52;11.80;99.90
39665;DHT22;26679;50.872;4.332;2023-04-28T00:28:18;11.60;99.90
39665;DHT22;26679;50.872;4.332;2023-04-28T00:30:43;11.60;99.90
39665;DHT22;26679;50.872;4.332;2023-04-28T00:33:09;11.70;99.90
39665;DHT22;26679;50.872;4.332;2023-04-28T00:35:34;11.60;99.90
39665;DHT22;26679;50.872;4.332;2023-04-28T00:38:00;11.60;99.90
39665;DHT22;26679;50.872;4.332;2023-04-28T00:40:35;11.70;99.90
39665;DHT22;26679;50.872;4.332;2023-04-28T00:43:01;11.70;99.90
39665;DHT22;26679;50.872;4.332;2023-04-28T00:45:26;11.80;99.90
39665;DHT22;26679;50.872;4.332;2023-04-28T00:47:52;11.90;99.90
39665;DHT22;26679;50.872;4.332;2023-04-28T00:50:18;12.00;99.90
39665;DHT22;26679;50.872;4.332;2023-04-28T00:52:44;12.00;99.90
39665;DHT22;26679;50.872;4.332;2023-04-28T00:55:09;12.10;99.90
39665;DHT22;26679;50.872;4.332;2023-04-28T00:57:36;12.10;99.90
39665;DHT22;26679;50.872;4.332;2023-04-28T01:00:02;12.20;99.90
39665;DHT22;26679;50.872;4.332;2023-04-28T01:02:27;12.30;99.90
39665;DHT22;26679;50.872;4.332;2023-04-28T01:04:55;12.40;99.90
39665;DHT22;26679;50.872;4.332;2023-04-28T01:07:20;12.50;99.90
39665;DHT22;26679;50.872;4.332;2023-04-28T01:09:46;12.70;99.90
39665;DHT22;26679;50.872;4.332;2023-04-28T01:12:12;12.70;99.90
39665;DHT22;26679;50.872;4.332;2023-04-28T01:14:37;12.70;99.90
39665;DHT22;26679;50.872;4.332;2023-04-28T01:17:03;12.80;99.90
39665;DHT22;26679;50.872;4.332;2023-04-28T01:19:29;12.70;99.90
39665;DHT22;26679;50.872;4.332;2023-04-28T01:21:54;12.70;99.90
39665;DHT22;26679;50.872;4.332;2023-04-28T01:24:20;12.90;99.90
39665;DHT22;26679;50.872;4.332;2023-04-28T01:26:45;13.00;99.90
39665;DHT22;26679;50.872;4.332;2023-04-28T01:29:11;13.20;99.90
39665;DHT22;26679;50.872;4.332;2023-04-28T01:31:36;13.20;99.90
39665;DHT22;26679;50.872;4.332;2023-04-28T01:34:02;13.20;99.90
39665;DHT22;26679;50.872;4.332;2023-04-28T01:36:28;13.20;99.90
39665;DHT22;26679;50.872;4.332;2023-04-28T01:38:53;13.10;99.90
39665;DHT22;26679;50.872;4.332;2023-04-28T01:41:19;13.10;99.90
39665;DHT22;26679;50.872;4.332;2023-04-28T01:43:44;13.00;99.90
39665;DHT22;26679;50.872;4.332;2023-04-28T01:46:10;12.90;99.90
39665;DHT22;26679;50.872;4.332;2023-04-28T01:48:35;12.70;99.90
39665;DHT22;26679;50.872;4.332;2023-04-28T01:51:01;12.60;99.90
39665;DHT22;26679;50.872;4.332;2023-04-28T01:53:27;12.60;99.90
39665;DHT22;26679;50.872;4.332;2023-04-28T01:55:52;12.50;99.90
39665;DHT22;26679;50.872;4.332;2023-04-28T01:58:18;12.50;99.90
39665;DHT22;26679;50.872;4.332;2023-04-28T02:00:44;12.50;99.90
39665;DHT22;26679;50.872;4.332;2023-04-28T02:03:10;12.50;99.90
39665;DHT22;26679;50.872;4.332;2023-04-28T02:05:35;12.30;99.90
39665;DHT22;26679;50.872;4.332;2023-04-28T02:08:01;12.20;99.90
39665;DHT22;26679;50.872;4.332;2023-04-28T02:10:26;12.20;99.90
39665;DHT22;26679;50.872;4.332;2023-04-28T02:12:52;12.00;99.90
39665;DHT22;26679;50.872;4.332;2023-04-28T02:15:17;12.20;99.90
39665;DHT22;26679;50.872;4.332;2023-04-28T02:17:43;12.00;99.90
39665;DHT22;26679;50.872;4.332;2023-04-28T02:20:09;12.00;99.90
39665;DHT22;26679;50.872;4.332;2023-04-28T02:22:35;12.00;99.90
39665;DHT22;26679;50.872;4.332;2023-04-28T02:25:00;11.80;99.90
39665;DHT22;26679;50.872;4.332;2023-04-28T02:27:26;11.80;99.90
39665;DHT22;26679;50.872;4.332;2023-04-28T02:29:51;11.80;99.90
39665;DHT22;26679;50.872;4.332;2023-04-28T02:32:17;11.70;99.90
39665;DHT22;26679;50.872;4.332;2023-04-28T02:34:42;11.70;99.90
39665;DHT22;26679;50.872;4.332;2023-04-28T02:37:08;11.80;99.90
39665;DHT22;26679;50.872;4.332;2023-04-28T02:39:33;11.80;99.90
39665;DHT22;26679;50.872;4.332;2023-04-28T02:41:59;11.80;99.90
39665;DHT22;26679;50.872;4.332;2023-04-28T02:44:24;11.70;99.90
39665;DHT22;26679;50.872;4.332;2023-04-28T02:46:50;11.80;99.90
39665;DHT22;26679;50.872;4.332;2023-04-28T02:49:16;11.80;99.90
39665;DHT22;26679;50.872;4.332;2023-04-28T02:51:41;11.90;99.90
39665;DHT22;26679;50.872;4.332;2023-04-28T02:54:07;12.00;99.90
39665;DHT22;26679;50.872;4.332;2023-04-28T02:56:33;12.00;99.90
39665;DHT22;26679;50.872;4.332;2023-04-28T02:58:59;11.90;99.90
39665;DHT22;26679;50.872;4.332;2023-04-28T03:01:24;11.90;99.90
39665;DHT22;26679;50.872;4.332;2023-04-28T03:03:50;11.90;99.90
39665;DHT22;26679;50.872;4.332;2023-04-28T03:06:15;11.90;99.90
39665;DHT22;26679;50.872;4.332;2023-04-28T03:08:41;12.00;99.90
39665;DHT22;26679;50.872;4.332;2023-04-28T03:11:06;12.10;99.90
39665;DHT22;26679;50.872;4.332;2023-04-28T03:13:32;12.00;99.90
39665;DHT22;26679;50.872;4.332;2023-04-28T03:15:58;12.10;99.90
39665;DHT22;26679;50.872;4.332;2023-04-28T03:18:23;12.20;99.90
39665;DHT22;26679;50.872;4.332;2023-04-28T03:20:49;12.20;99.90
39665;DHT22;26679;50.872;4.332;2023-04-28T03:23:14;12.10;99.90
39665;DHT22;26679;50.872;4.332;2023-04-28T03:25:40;12.10;99.90
39665;DHT22;26679;50.872;4.332;2023-04-28T03:28:06;12.00;99.90
39665;DHT22;26679;50.872;4.332;2023-04-28T03:30:31;12.00;99.90
39665;DHT22;26679;50.872;4.332;2023-04-28T03:32:57;12.10;99.90
39665;DHT22;26679;50.872;4.332;2023-04-28T03:35:22;12.20;99.90
39665;DHT22;26679;50.872;4.332;2023-04-28T03:37:48;12.40;99.90
39665;DHT22;26679;50.872;4.332;2023-04-28T03:40:14;12.50;99.90
39665;DHT22;26679;50.872;4.332;2023-04-28T03:42:39;12.50;99.90
39665;DHT22;26679;50.872;4.332;2023-04-28T03:45:05;12.60;99.90
39665;DHT22;26679;50.872;4.332;2023-04-28T03:47:31;12.70;99.90
39665;DHT22;26679;50.872;4.332;2023-04-28T03:49:57;12.70;99.90
39665;DHT22;26679;50.872;4.332;2023-04-28T03:52:23;12.70;99.90
39665;DHT22;26679;50.872;4.332;2023-04-28T03:54:48;12.40;99.90
39665;DHT22;26679;50.872;4.332;2023-04-28T03:57:14;12.00;99.90
39665;DHT22;26679;50.872;4.332;2023-04-28T03:59:40;11.80;99.90
39665;DHT22;26679;50.872;4.332;2023-04-28T04:02:05;11.90;99.90
39665;DHT22;26679;50.872;4.332;2023-04-28T04:04:31;11.90;99.90
39665;DHT22;26679;50.872;4.332;2023-04-28T04:06:56;12.10;99.90
39665;DHT22;26679;50.872;4.332;2023-04-28T04:09:23;12.20;99.90
39665;DHT22;26679;50.872;4.332;2023-04-28T04:11:48;12.20;99.90
39665;DHT22;26679;50.872;4.332;2023-04-28T04:14:13;12.20;99.90
39665;DHT22;26679;50.872;4.332;2023-04-28T04:16:39;12.20;99.90
39665;DHT22;26679;50.872;4.332;2023-04-28T04:19:05;12.30;99.90
39665;DHT22;26679;50.872;4.332;2023-04-28T04:21:31;12.50;99.90
39665;DHT22;26679;50.872;4.332;2023-04-28T04:23:56;12.50;99.90
39665;DHT22;26679;50.872;4.332;2023-04-28T04:26:22;12.60;99.90
39665;DHT22;26679;50.872;4.332;2023-04-28T04:28:47;12.60;99.90
39665;DHT22;26679;50.872;4.332;2023-04-28T04:31:13;12.60;99.90
39665;DHT22;26679;50.872;4.332;2023-04-28T04:33:39;12.60;99.90
39665;DHT22;26679;50.872;4.332;2023-04-28T04:36:05;12.70;99.90
39665;DHT22;26679;50.872;4.332;2023-04-28T04:38:31;12.80;99.90
39665;DHT22;26679;50.872;4.332;2023-04-28T04:40:56;12.90;99.90
39665;DHT22;26679;50.872;4.332;2023-04-28T04:43:22;13.00;99.90
39665;DHT22;26679;50.872;4.332;2023-04-28T04:45:47;13.10;99.90
39665;DHT22;26679;50.872;4.332;2023-04-28T04:48:13;13.10;99.90
39665;DHT22;26679;50.872;4.332;2023-04-28T04:50:39;13.20;99.90
39665;DHT22;26679;50.872;4.332;2023-04-28T04:53:05;13.30;99.90
39665;DHT22;26679;50.872;4.332;2023-04-28T04:55:30;13.40;99.90
39665;DHT22;26679;50.872;4.332;2023-04-28T04:57:56;13.50;99.90
39665;DHT22;26679;50.872;4.332;2023-04-28T05:00:21;13.50;99.90
39665;DHT22;26679;50.872;4.332;2023-04-28T05:02:47;13.50;99.90
39665;DHT22;26679;50.872;4.332;2023-04-28T05:05:12;13.50;99.90
39665;DHT22;26679;50.872;4.332;2023-04-28T05:07:38;13.50;99.90
39665;DHT22;26679;50.872;4.332;2023-04-28T05:10:04;13.50;99.90
39665;DHT22;26679;50.872;4.332;2023-04-28T05:12:31;13.50;99.90
39665;DHT22;26679;50.872;4.332;2023-04-28T05:14:57;13.40;99.90
39665;DHT22;26679;50.872;4.332;2023-04-28T05:17:22;13.40;99.90
39665;DHT22;26679;50.872;4.332;2023-04-28T05:19:48;13.30;99.90
39665;DHT22;26679;50.872;4.332;2023-04-28T05:22:13;13.30;99.90
39665;DHT22;26679;50.872;4.332;2023-04-28T05:24:39;13.40;99.90
39665;DHT22;26679;50.872;4.332;2023-04-28T05:27:04;13.20;99.90
39665;DHT22;26679;50.872;4.332;2023-04-28T05:29:30;13.10;99.90
39665;DHT22;26679;50.872;4.332;2023-04-28T05:32:07;13.10;99.90
39665;DHT22;26679;50.872;4.332;2023-04-28T05:34:33;13.20;99.90
39665;DHT22;26679;50.872;4.332;2023-04-28T05:36:59;13.20;99.90
39665;DHT22;26679;50.872;4.332;2023-04-28T05:39:25;13.40;99.90
39665;DHT22;26679;50.872;4.332;2023-04-28T05:41:53;13.20;99.90
39665;DHT22;26679;50.872;4.332;2023-04-28T05:44:19;13.20;99.90
39665;DHT22;26679;50.872;4.332;2023-04-28T05:46:44;13.30;99.90
39665;DHT22;26679;50.872;4.332;2023-04-28T05:49:10;13.30;99.90
39665;DHT22;26679;50.872;4.332;2023-04-28T05:51:36;13.40;99.90
39665;DHT22;26679;50.872;4.332;2023-04-28T05:54:03;13.50;99.90
39665;DHT22;26679;50.872;4.332;2023-04-28T05:59:14;13.60;99.90
39665;DHT22;26679;50.872;4.332;2023-04-28T06:01:39;13.80;99.90
39665;DHT22;26679;50.872;4.332;2023-04-28T06:04:06;13.90;99.90
39665;DHT22;26679;50.872;4.332;2023-04-28T06:06:32;13.90;99.90
39665;DHT22;26679;50.872;4.332;2023-04-28T06:19:13;14.20;99.90
39665;DHT22;26679;50.872;4.332;2023-04-28T06:21:43;14.30;99.90
39665;DHT22;26679;50.872;4.332;2023-04-28T06:24:08;14.30;99.90
39665;DHT22;26679;50.872;4.332;2023-04-28T06:29:09;14.40;99.90
39665;DHT22;26679;50.872;4.332;2023-04-28T06:31:35;14.40;99.90
39665;DHT22;26679;50.872;4.332;2023-04-28T06:34:01;14.30;99.90
39665;DHT22;26679;50.872;4.332;2023-04-28T06:36:26;14.40;99.90
39665;DHT22;26679;50.872;4.332;2023-04-28T06:38:52;14.40;99.90
39665;DHT22;26679;50.872;4.332;2023-04-28T06:41:21;14.50;99.90
39665;DHT22;26679;50.872;4.332;2023-04-28T06:43:47;14.50;99.90
39665;DHT22;26679;50.872;4.332;2023-04-28T06:46:12;14.50;99.90
39665;DHT22;26679;50.872;4.332;2023-04-28T06:48:38;14.50;99.90
39665;DHT22;26679;50.872;4.332;2023-04-28T06:51:03;14.70;99.90
39665;DHT22;26679;50.872;4.332;2023-04-28T06:53:29;14.70;99.90
39665;DHT22;26679;50.872;4.332;2023-04-28T06:55:54;14.90;99.90
39665;DHT22;26679;50.872;4.332;2023-04-28T06:58:20;15.00;99.90
39665;DHT22;26679;50.872;4.332;2023-04-28T07:00:46;15.10;99.90
39665;DHT22;26679;50.872;4.332;2023-04-28T07:03:12;15.10;99.90
39665;DHT22;26679;50.872;4.332;2023-04-28T07:05:37;15.00;99.90
39665;DHT22;26679;50.872;4.332;2023-04-28T07:08:03;15.00;99.90
39665;DHT22;26679;50.872;4.332;2023-04-28T07:10:28;15.10;99.90
39665;DHT22;26679;50.872;4.332;2023-04-28T07:12:54;15.10;99.90
39665;DHT22;26679;50.872;4.332;2023-04-28T07:15:19;15.20;99.90
39665;DHT22;26679;50.872;4.332;2023-04-28T07:17:45;15.20;99.90
39665;DHT22;26679;50.872;4.332;2023-04-28T07:20:11;15.20;99.90
39665;DHT22;26679;50.872;4.332;2023-04-28T07:22:37;15.30;99.90
39665;DHT22;26679;50.872;4.332;2023-04-28T07:25:03;15.30;99.90
39665;DHT22;26679;50.872;4.332;2023-04-28T07:27:28;15.20;99.90
39665;DHT22;26679;50.872;4.332;2023-04-28T07:29:54;15.30;99.90
39665;DHT22;26679;50.872;4.332;2023-04-28T07:32:19;15.30;99.90
39665;DHT22;26679;50.872;4.332;2023-04-28T07:34:45;15.50;99.90
39665;DHT22;26679;50.872;4.332;2023-04-28T07:37:11;15.60;99.90
39665;DHT22;26679;50.872;4.332;2023-04-28T07:39:37;15.90;99.90
39665;DHT22;26679;50.872;4.332;2023-04-28T07:42:04;16.00;99.90
39665;DHT22;26679;50.872;4.332;2023-04-28T07:44:30;16.10;99.90
39665;DHT22;26679;50.872;4.332;2023-04-28T07:46:57;16.20;99.90
39665;DHT22;26679;50.872;4.332;2023-04-28T07:49:23;16.20;99.90
39665;DHT22;26679;50.872;4.332;2023-04-28T07:51:49;16.40;99.90
39665;DHT22;26679;50.872;4.332;2023-04-28T07:54:17;16.50;99.90
39665;DHT22;26679;50.872;4.332;2023-04-28T07:56:43;16.50;99.90
39665;DHT22;26679;50.872;4.332;2023-04-28T07:59:09;16.60;99.90
39665;DHT22;26679;50.872;4.332;2023-04-28T08:01:34;16.60;99.90
39665;DHT22;26679;50.872;4.332;2023-04-28T08:04:01;16.50;99.90
39665;DHT22;26679;50.872;4.332;2023-04-28T08:06:27;16.50;99.90
39665;DHT22;26679;50.872;4.332;2023-04-28T08:08:53;16.50;99.90
39665;DHT22;26679;50.872;4.332;2023-04-28T08:11:19;16.50;99.90
39665;DHT22;26679;50.872;4.332;2023-04-28T08:13:45;16.50;99.90
39665;DHT22;26679;50.872;4.332;2023-04-28T08:16:12;16.50;99.90
39665;DHT22;26679;50.872;4.332;2023-04-28T08:18:38;16.50;99.90
39665;DHT22;26679;50.872;4.332;2023-04-28T08:21:04;16.60;99.90
39665;DHT22;26679;50.872;4.332;2023-04-28T08:23:30;16.60;99.90
39665;DHT22;26679;50.872;4.332;2023-04-28T08:25:57;16.60;99.90
39665;DHT22;26679;50.872;4.332;2023-04-28T08:28:23;16.60;99.90
39665;DHT22;26679;50.872;4.332;2023-04-28T08:30:48;16.60;99.90
39665;DHT22;26679;50.872;4.332;2023-04-28T08:33:14;16.60;99.90
39665;DHT22;26679;50.872;4.332;2023-04-28T08:35:41;16.50;99.90
39665;DHT22;26679;50.872;4.332;2023-04-28T08:38:07;16.40;99.90
39665;DHT22;26679;50.872;4.332;2023-04-28T08:40:38;16.50;99.90
39665;DHT22;26679;50.872;4.332;2023-04-28T08:43:04;16.60;99.90
39665;DHT22;26679;50.872;4.332;2023-04-28T08:45:30;16.60;99.90
39665;DHT22;26679;50.872;4.332;2023-04-28T08:47:59;16.70;99.90
39665;DHT22;26679;50.872;4.332;2023-04-28T08:50:28;16.80;99.90
39665;DHT22;26679;50.872;4.332;2023-04-28T08:52:55;16.70;99.90
39665;DHT22;26679;50.872;4.332;2023-04-28T08:55:21;16.80;99.90
39665;DHT22;26679;50.872;4.332;2023-04-28T08:57:48;16.90;99.90
39665;DHT22;26679;50.872;4.332;2023-04-28T09:00:15;16.90;99.90
39665;DHT22;26679;50.872;4.332;2023-04-28T09:02:41;16.80;99.90
39665;DHT22;26679;50.872;4.332;2023-04-28T09:05:07;16.70;99.90
39665;DHT22;26679;50.872;4.332;2023-04-28T09:07:33;16.60;99.90
39665;DHT22;26679;50.872;4.332;2023-04-28T09:12:35;16.60;99.90
39665;DHT22;26679;50.872;4.332;2023-04-28T09:15:02;16.80;99.90
39665;DHT22;26679;50.872;4.332;2023-04-28T09:17:33;17.00;99.90
39665;DHT22;26679;50.872;4.332;2023-04-28T09:22:48;17.70;99.90
39665;DHT22;26679;50.872;4.332;2023-04-28T09:25:15;17.60;99.90
39665;DHT22;26679;50.872;4.332;2023-04-28T09:27:40;17.80;99.90
39665;DHT22;26679;50.872;4.332;2023-04-28T09:30:09;18.00;99.90
39665;DHT22;26679;50.872;4.332;2023-04-28T09:32:34;18.10;99.90
39665;DHT22;26679;50.872;4.332;2023-04-28T09:35:00;18.50;99.90
39665;DHT22;26679;50.872;4.332;2023-04-28T09:37:29;18.50;99.90
39665;DHT22;26679;50.872;4.332;2023-04-28T09:40:05;18.30;99.90
39665;DHT22;26679;50.872;4.332;2023-04-28T09:42:33;18.20;99.90
39665;DHT22;26679;50.872;4.332;2023-04-28T09:44:59;18.00;99.90
39665;DHT22;26679;50.872;4.332;2023-04-28T09:47:28;17.70;99.90
39665;DHT22;26679;50.872;4.332;2023-04-28T09:49:57;17.70;99.90
39665;DHT22;26679;50.872;4.332;2023-04-28T09:52:24;17.80;99.90
39665;DHT22;26679;50.872;4.332;2023-04-28T09:54:51;17.80;99.90
39665;DHT22;26679;50.872;4.332;2023-04-28T09:57:17;17.90;99.90
39665;DHT22;26679;50.872;4.332;2023-04-28T09:59:47;18.20;99.90
39665;DHT22;26679;50.872;4.332;2023-04-28T10:02:16;18.70;99.90
39665;DHT22;26679;50.872;4.332;2023-04-28T10:04:45;18.70;99.90
39665;DHT22;26679;50.872;4.332;2023-04-28T10:07:12;18.60;99.90
39665;DHT22;26679;50.872;4.332;2023-04-28T10:09:39;18.50;99.90
39665;DHT22;26679;50.872;4.332;2023-04-28T10:12:11;18.50;99.90
39665;DHT22;26679;50.872;4.332;2023-04-28T10:14:36;18.60;99.90
39665;DHT22;26679;50.872;4.332;2023-04-28T10:17:02;18.50;99.90
39665;DHT22;26679;50.872;4.332;2023-04-28T10:19:28;18.30;99.90
39665;DHT22;26679;50.872;4.332;2023-04-28T10:22:05;18.10;99.90
39665;DHT22;26679;50.872;4.332;2023-04-28T10:24:34;18.00;99.90
39665;DHT22;26679;50.872;4.332;2023-04-28T10:27:09;17.80;99.90
39665;DHT22;26679;50.872;4.332;2023-04-28T10:29:34;17.80;99.90
39665;DHT22;26679;50.872;4.332;2023-04-28T10:34:36;17.80;99.90
39665;DHT22;26679;50.872;4.332;2023-04-28T10:37:04;18.00;99.90
39665;DHT22;26679;50.872;4.332;2023-04-28T10:39:29;18.30;99.90
39665;DHT22;26679;50.872;4.332;2023-04-28T10:41:55;18.30;99.90
39665;DHT22;26679;50.872;4.332;2023-04-28T10:52:02;18.10;99.90
39665;DHT22;26679;50.872;4.332;2023-04-28T10:57:24;18.20;99.90
39665;DHT22;26679;50.872;4.332;2023-04-28T10:59:50;18.10;99.90
39665;DHT22;26679;50.872;4.332;2023-04-28T11:02:34;18.20;99.90
39665;DHT22;26679;50.872;4.332;2023-04-28T11:07:36;17.80;99.90
39665;DHT22;26679;50.872;4.332;2023-04-28T11:10:02;17.70;99.90
39665;DHT22;26679;50.872;4.332;2023-04-28T11:12:27;17.50;99.90
39665;DHT22;26679;50.872;4.332;2023-04-28T11:14:53;17.50;99.90
39665;DHT22;26679;50.872;4.332;2023-04-28T11:17:19;17.50;99.90
39665;DHT22;26679;50.872;4.332;2023-04-28T11:19:57;17.40;99.90
39665;DHT22;26679;50.872;4.332;2023-04-28T11:22:23;17.40;99.90
39665;DHT22;26679;50.872;4.332;2023-04-28T11:27:26;17.40;99.90
39665;DHT22;26679;50.872;4.332;2023-04-28T11:29:52;17.50;99.90
39665;DHT22;26679;50.872;4.332;2023-04-28T11:32:24;17.40;99.90
39665;DHT22;26679;50.872;4.332;2023-04-28T11:34:50;17.40;99.90
39665;DHT22;26679;50.872;4.332;2023-04-28T11:37:17;17.40;99.90
39665;DHT22;26679;50.872;4.332;2023-04-28T11:39:45;17.20;99.90
39665;DHT22;26679;50.872;4.332;2023-04-28T11:42:11;17.10;99.90
39665;DHT22;26679;50.872;4.332;2023-04-28T11:44:39;17.00;99.90
39665;DHT22;26679;50.872;4.332;2023-04-28T11:47:05;16.90;99.90
39665;DHT22;26679;50.872;4.332;2023-04-28T11:49:31;16.80;99.90
39665;DHT22;26679;50.872;4.332;2023-04-28T11:52:06;16.70;99.90
39665;DHT22;26679;50.872;4.332;2023-04-28T11:54:31;16.60;99.90
39665;DHT22;26679;50.872;4.332;2023-04-28T11:56:58;16.60;99.90
39665;DHT22;26679;50.872;4.332;2023-04-28T12:01:54;16.80;99.90
39665;DHT22;26679;50.872;4.332;2023-04-28T12:09:26;16.90;99.90
39665;DHT22;26679;50.872;4.332;2023-04-28T12:12:01;16.90;99.90
39665;DHT22;26679;50.872;4.332;2023-04-28T12:14:27;16.80;99.90
39665;DHT22;26679;50.872;4.332;2023-04-28T12:16:53;16.80;99.90
39665;DHT22;26679;50.872;4.332;2023-04-28T12:19:18;16.90;99.90
39665;DHT22;26679;50.872;4.332;2023-04-28T12:24:21;16.80;99.90
39665;DHT22;26679;50.872;4.332;2023-04-28T12:26:47;16.90;99.90
39665;DHT22;26679;50.872;4.332;2023-04-28T12:31:49;17.00;99.90
39665;DHT22;26679;50.872;4.332;2023-04-28T12:34:17;17.10;99.90
39665;DHT22;26679;50.872;4.332;2023-04-28T12:36:42;17.00;99.90
39665;DHT22;26679;50.872;4.332;2023-04-28T12:39:13;16.90;99.90
39665;DHT22;26679;50.872;4.332;2023-04-28T12:41:41;16.80;99.90
39665;DHT22;26679;50.872;4.332;2023-04-28T12:44:06;16.80;99.90
39665;DHT22;26679;50.872;4.332;2023-04-28T12:46:32;16.80;99.90
39665;DHT22;26679;50.872;4.332;2023-04-28T12:48:58;16.80;99.90
39665;DHT22;26679;50.872;4.332;2023-04-28T12:51:23;16.90;99.90
39665;DHT22;26679;50.872;4.332;2023-04-28T12:53:49;16.80;99.90
39665;DHT22;26679;50.872;4.332;2023-04-28T12:56:15;16.70;99.90
39665;DHT22;26679;50.872;4.332;2023-04-28T12:58:41;16.70;99.90
39665;DHT22;26679;50.872;4.332;2023-04-28T13:01:06;16.70;99.90
39665;DHT22;26679;50.872;4.332;2023-04-28T13:03:35;16.60;99.90
39665;DHT22;26679;50.872;4.332;2023-04-28T13:06:01;16.60;99.90
39665;DHT22;26679;50.872;4.332;2023-04-28T13:08:26;16.60;99.90
39665;DHT22;26679;50.872;4.332;2023-04-28T13:10:55;16.80;99.90
39665;DHT22;26679;50.872;4.332;2023-04-28T13:13:20;16.90;99.90
39665;DHT22;26679;50.872;4.332;2023-04-28T13:15:46;16.90;99.90
39665;DHT22;26679;50.872;4.332;2023-04-28T13:18:11;17.10;99.90
39665;DHT22;26679;50.872;4.332;2023-04-28T13:20:37;17.10;99.90
39665;DHT22;26679;50.872;4.332;2023-04-28T13:23:02;17.10;99.90
39665;DHT22;26679;50.872;4.332;2023-04-28T13:25:28;17.00;99.90
39665;DHT22;26679;50.872;4.332;2023-04-28T13:27:54;17.10;99.90
39665;DHT22;26679;50.872;4.332;2023-04-28T13:30:19;17.00;99.90
39665;DHT22;26679;50.872;4.332;2023-04-28T13:32:46;17.10;99.90
39665;DHT22;26679;50.872;4.332;2023-04-28T13:35:13;16.90;99.90
39665;DHT22;26679;50.872;4.332;2023-04-28T13:37:38;16.90;99.90
39665;DHT22;26679;50.872;4.332;2023-04-28T13:40:09;16.70;99.90
39665;DHT22;26679;50.872;4.332;2023-04-28T13:42:35;16.60;99.90
39665;DHT22;26679;50.872;4.332;2023-04-28T13:45:01;16.70;99.90
39665;DHT22;26679;50.872;4.332;2023-04-28T13:47:28;16.80;99.90
39665;DHT22;26679;50.872;4.332;2023-04-28T13:49:57;16.80;99.90
39665;DHT22;26679;50.872;4.332;2023-04-28T13:52:22;16.90;99.90
39665;DHT22;26679;50.872;4.332;2023-04-28T13:54:49;16.80;99.90
39665;DHT22;26679;50.872;4.332;2023-04-28T13:57:15;16.80;99.90
39665;DHT22;26679;50.872;4.332;2023-04-28T13:59:40;16.80;99.90
39665;DHT22;26679;50.872;4.332;2023-04-28T14:02:06;16.80;99.90
39665;DHT22;26679;50.872;4.332;2023-04-28T14:04:33;16.90;99.90
39665;DHT22;26679;50.872;4.332;2023-04-28T14:06:59;16.80;99.90
39665;DHT22;26679;50.872;4.332;2023-04-28T14:09:24;16.90;99.90
39665;DHT22;26679;50.872;4.332;2023-04-28T14:11:50;16.90;99.90
39665;DHT22;26679;50.872;4.332;2023-04-28T14:14:15;16.90;99.90
39665;DHT22;26679;50.872;4.332;2023-04-28T14:16:41;17.00;99.90
39665;DHT22;26679;50.872;4.332;2023-04-28T14:19:06;17.00;99.90
39665;DHT22;26679;50.872;4.332;2023-04-28T14:21:32;17.10;99.90
39665;DHT22;26679;50.872;4.332;2023-04-28T14:23:58;17.20;99.90
39665;DHT22;26679;50.872;4.332;2023-04-28T14:26:24;17.30;99.90
39665;DHT22;26679;50.872;4.332;2023-04-28T14:28:50;17.40;99.90
39665;DHT22;26679;50.872;4.332;2023-04-28T14:31:15;17.50;99.90
39665;DHT22;26679;50.872;4.332;2023-04-28T14:33:42;17.60;99.90
39665;DHT22;26679;50.872;4.332;2023-04-28T14:36:07;17.80;99.90
39665;DHT22;26679;50.872;4.332;2023-04-28T14:38:33;18.00;99.90
39665;DHT22;26679;50.872;4.332;2023-04-28T14:40:58;17.80;99.90
39665;DHT22;26679;50.872;4.332;2023-04-28T14:43:24;17.60;99.90
39665;DHT22;26679;50.872;4.332;2023-04-28T14:45:50;17.50;99.90
39665;DHT22;26679;50.872;4.332;2023-04-28T14:48:15;17.50;99.90
39665;DHT22;26679;50.872;4.332;2023-04-28T14:50:41;17.80;99.90
39665;DHT22;26679;50.872;4.332;2023-04-28T14:53:07;18.00;99.90
39665;DHT22;26679;50.872;4.332;2023-04-28T14:55:32;18.00;99.90
39665;DHT22;26679;50.872;4.332;2023-04-28T14:57:58;17.90;99.90
39665;DHT22;26679;50.872;4.332;2023-04-28T15:00:23;17.90;99.90
39665;DHT22;26679;50.872;4.332;2023-04-28T15:02:49;17.90;99.90
39665;DHT22;26679;50.872;4.332;2023-04-28T15:05:14;18.00;99.90
39665;DHT22;26679;50.872;4.332;2023-04-28T15:07:40;17.90;99.90
39665;DHT22;26679;50.872;4.332;2023-04-28T15:10:06;17.80;99.90
39665;DHT22;26679;50.872;4.332;2023-04-28T15:12:31;17.80;99.90
39665;DHT22;26679;50.872;4.332;2023-04-28T15:14:58;17.80;99.90
39665;DHT22;26679;50.872;4.332;2023-04-28T15:17:24;18.00;99.90
39665;DHT22;26679;50.872;4.332;2023-04-28T15:19:50;18.30;99.90
39665;DHT22;26679;50.872;4.332;2023-04-28T15:22:15;18.20;99.90
39665;DHT22;26679;50.872;4.332;2023-04-28T15:24:41;18.20;99.90
39665;DHT22;26679;50.872;4.332;2023-04-28T15:27:07;18.10;99.90
39665;DHT22;26679;50.872;4.332;2023-04-28T15:29:32;18.00;99.90
39665;DHT22;26679;50.872;4.332;2023-04-28T15:31:58;18.00;99.90
39665;DHT22;26679;50.872;4.332;2023-04-28T15:34:24;18.20;99.90
39665;DHT22;26679;50.872;4.332;2023-04-28T15:36:50;18.20;99.90
39665;DHT22;26679;50.872;4.332;2023-04-28T15:39:25;18.00;99.90
39665;DHT22;26679;50.872;4.332;2023-04-28T15:41:52;18.00;99.90
39665;DHT22;26679;50.872;4.332;2023-04-28T15:44:18;17.90;99.90
39665;DHT22;26679;50.872;4.332;2023-04-28T15:46:44;17.70;99.90
39665;DHT22;26679;50.872;4.332;2023-04-28T15:49:10;17.50;99.90
39665;DHT22;26679;50.872;4.332;2023-04-28T15:51:36;17.50;99.90
39665;DHT22;26679;50.872;4.332;2023-04-28T15:54:02;17.20;99.90
39665;DHT22;26679;50.872;4.332;2023-04-28T15:56:28;17.10;99.90
39665;DHT22;26679;50.872;4.332;2023-04-28T15:58:55;17.00;99.90
39665;DHT22;26679;50.872;4.332;2023-04-28T16:01:20;17.00;99.90
39665;DHT22;26679;50.872;4.332;2023-04-28T16:03:46;17.10;99.90
39665;DHT22;26679;50.872;4.332;2023-04-28T16:06:15;17.00;99.90
39665;DHT22;26679;50.872;4.332;2023-04-28T16:08:41;16.90;99.90
39665;DHT22;26679;50.872;4.332;2023-04-28T16:11:07;16.70;99.90
39665;DHT22;26679;50.872;4.332;2023-04-28T16:13:34;16.60;99.90
39665;DHT22;26679;50.872;4.332;2023-04-28T16:16:01;16.50;99.90